Time;durP1;ratioP1;P1;durP2;ratioP2;P2;SDS_P1;SDS_P2;PMS_P1;PMS_P2;Temp;Humidity;BMP_temperature;BMP_pressure;BME280_temperature;BME280_humidity;BME280_pressure;Samples;Min_cycle;Max_cycle;Signal;HPM_P1;HPM_P2
2023/03/12 00:00:15;;;;;;;3.80;2.67;;;;;;;;;;5071487;28;20438;-80
2023/03/12 00:02:43;;;;;;;5.13;2.23;;;;;;;;;;5071127;28;20829;-81
2023/03/12 00:05:11;;;;;;;4.07;3.60;;;;;;;;;;5069862;28;20444;-81
2023/03/12 00:07:38;;;;;;;1.30;1.00;;;;;;;;;;5070876;28;20468;-80
2023/03/12 00:10:06;;;;;;;2.13;1.87;;;;;;;;;;5070097;28;20441;-81
2023/03/12 00:12:33;;;;;;;2.83;1.67;;;;;;;;;;5070864;28;20442;-81
2023/03/12 00:15:00;;;;;;;4.70;1.03;;;;;;;;;;5069822;28;20450;-79
2023/03/12 00:17:28;;;;;;;3.70;1.03;;;;;;;;;;5070793;28;20800;-81
2023/03/12 00:19:57;;;;;;;1.60;1.50;;;;;;;;;;5070071;28;20440;-81
2023/03/12 00:22:25;;;;;;;3.60;1.30;;;;;;;;;;5070311;28;20893;-82
2023/03/12 00:24:52;;;;;;;2.20;1.80;;;;;;;;;;5069818;28;20501;-82
2023/03/12 00:27:19;;;;;;;3.43;1.30;;;;;;;;;;5070433;28;20447;-78
2023/03/12 00:29:47;;;;;;;1.53;1.43;;;;;;;;;;5070556;28;20440;-81
2023/03/12 00:32:14;;;;;;;1.63;1.20;;;;;;;;;;5070940;28;20438;-82
2023/03/12 00:34:41;;;;;;;2.03;1.77;;;;;;;;;;5069983;28;20445;-81
2023/03/12 00:37:10;;;;;;;6.00;1.30;;;;;;;;;;5069933;28;20748;-81
2023/03/12 00:39:37;;;;;;;1.27;0.80;;;;;;;;;;5070532;28;20455;-81
2023/03/12 00:42:04;;;;;;;2.60;1.40;;;;;;;;;;5070032;28;20446;-81
2023/03/12 00:44:31;;;;;;;1.23;1.13;;;;;;;;;;5069482;28;20498;-82
2023/03/12 00:46:58;;;;;;;2.20;1.40;;;;;;;;;;5069509;28;20496;-81
2023/03/12 00:49:25;;;;;;;4.30;1.57;;;;;;;;;;5070046;28;20876;-81
2023/03/12 00:51:53;;;;;;;3.23;1.47;;;;;;;;;;5070040;28;20462;-81
2023/03/12 00:54:22;;;;;;;1.70;1.33;;;;;;;;;;5056199;28;20442;-82
2023/03/12 00:56:49;;;;;;;1.23;1.13;;;;;;;;;;5069805;28;20810;-74
2023/03/12 00:59:16;;;;;;;1.10;0.90;;;;;;;;;;5070272;28;20440;-81
2023/03/12 01:01:44;;;;;;;3.37;1.40;;;;;;;;;;5070434;28;20444;-82
2023/03/12 01:04:11;;;;;;;1.73;1.57;;;;;;;;;;5069471;28;20487;-82
2023/03/12 01:06:38;;;;;;;1.37;1.00;;;;;;;;;;5070129;28;21043;-82
2023/03/12 01:09:06;;;;;;;2.67;1.10;;;;;;;;;;5072292;28;20447;-82
2023/03/12 01:11:34;;;;;;;2.80;1.60;;;;;;;;;;5073564;28;20439;-82
2023/03/12 01:14:02;;;;;;;1.83;1.73;;;;;;;;;;5072907;28;20458;-82
2023/03/12 01:16:29;;;;;;;4.20;1.43;;;;;;;;;;5073700;28;20833;-81
2023/03/12 01:18:56;;;;;;;1.07;0.97;;;;;;;;;;5072925;28;20451;-81
2023/03/12 01:21:24;;;;;;;1.93;1.20;;;;;;;;;;5073652;28;20442;-81
2023/03/12 01:23:51;;;;;;;1.57;1.40;;;;;;;;;;5072963;28;20830;-79
2023/03/12 01:26:18;;;;;;;2.20;1.40;;;;;;;;;;5073358;28;20454;-76
2023/03/12 01:28:47;;;;;;;1.27;1.10;;;;;;;;;;5073560;28;20443;-81
2023/03/12 01:31:15;;;;;;;9.03;1.90;;;;;;;;;;5073581;28;20449;-82
2023/03/12 01:33:42;;;;;;;10.40;1.63;;;;;;;;;;5073360;28;20449;-82
2023/03/12 01:36:17;;;;;;;3.07;2.03;;;;;;;;;;5072415;28;20448;-82
2023/03/12 01:38:44;;;;;;;1.83;1.53;;;;;;;;;;5073562;28;20442;-82
2023/03/12 01:41:11;;;;;;;3.03;1.53;;;;;;;;;;5072566;28;20440;-82
2023/03/12 01:43:39;;;;;;;2.70;1.60;;;;;;;;;;5072816;28;20487;-82
2023/03/12 01:46:17;;;;;;;0.80;0.80;;;;;;;;;;5072188;28;20502;-82
2023/03/12 01:48:45;;;;;;;1.27;1.13;;;;;;;;;;5073504;28;20436;-83
2023/03/12 01:51:14;;;;;;;4.33;2.00;;;;;;;;;;5072566;28;20927;-83
2023/03/12 01:53:42;;;;;;;4.03;2.40;;;;;;;;;;5072909;28;20449;-83
2023/03/12 01:56:10;;;;;;;1.23;1.10;;;;;;;;;;5071702;28;20989;-82
2023/03/12 01:58:38;;;;;;;1.53;1.43;;;;;;;;;;5073061;28;20440;-82
2023/03/12 02:01:06;;;;;;;1.10;1.00;;;;;;;;;;5072269;28;20436;-82
2023/03/12 02:03:35;;;;;;;2.63;1.37;;;;;;;;;;5072659;28;20560;-82
2023/03/12 02:06:05;;;;;;;0.97;0.70;;;;;;;;;;5072035;28;20447;-82
2023/03/12 02:08:33;;;;;;;2.90;0.93;;;;;;;;;;5072989;28;20828;-82
2023/03/12 02:11:00;;;;;;;1.97;1.60;;;;;;;;;;5072025;28;20460;-82
2023/03/12 02:13:27;;;;;;;2.90;1.77;;;;;;;;;;5072528;28;20467;-82
2023/03/12 02:15:54;;;;;;;2.40;1.70;;;;;;;;;;5072089;28;20518;-83
2023/03/12 02:18:21;;;;;;;2.10;1.10;;;;;;;;;;5071964;28;20456;-82
2023/03/12 02:20:51;;;;;;;1.40;1.13;;;;;;;;;;5072316;28;20452;-70
2023/03/12 02:23:21;;;;;;;3.03;1.90;;;;;;;;;;5072892;28;20449;-78
2023/03/12 02:25:51;;;;;;;3.07;2.80;;;;;;;;;;5071611;28;20444;-70
2023/03/12 02:28:20;;;;;;;3.60;1.60;;;;;;;;;;5072751;28;20451;-82
2023/03/12 02:30:50;;;;;;;2.30;1.70;;;5.50;1.00;;;;;;5072524;28;20441;-82
2023/03/12 02:33:16;;;;;;;2.70;1.67;;;1.40;99.90;;;;;;5072633;28;20445;-81
2023/03/12 02:35:46;;;;;;;10.13;2.50;;;1.60;99.90;;;;;;5071975;28;20452;-82
2023/03/12 02:38:37;;;;;;;2.23;2.03;;;1.40;99.90;;;;;;5072315;28;20449;-82
2023/03/12 02:41:13;;;;;;;3.80;1.80;;;1.20;99.90;;;;;;5071308;28;20924;-82
2023/03/12 02:43:40;;;;;;;3.40;3.10;;;1.30;99.90;;;;;;5071792;28;20983;-79
2023/03/12 02:46:08;;;;;;;4.70;2.50;;;1.30;99.90;;;;;;5070996;28;20487;-82
2023/03/12 02:48:35;;;;;;;1.17;1.07;;;1.50;99.90;;;;;;5071668;28;20920;-81
2023/03/12 02:51:03;;;;;;;0.80;0.77;;;1.50;99.90;;;;;;5071576;28;20440;-82
2023/03/12 02:53:30;;;;;;;3.97;2.70;;;1.30;99.90;;;;;;5071732;28;20924;-82
2023/03/12 02:55:57;;;;;;;3.77;2.70;;;1.40;1.00;;;;;;5070880;28;20792;-82
2023/03/12 02:58:25;;;;;;;3.67;1.47;;;1.30;99.90;;;;;;5071972;28;20452;-82
2023/03/12 03:00:51;;;;;;;3.07;1.13;;;1.30;1.00;;;;;;5070286;28;20814;-74
2023/03/12 03:03:18;;;;;;;2.43;2.23;;;1.40;99.90;;;;;;5070936;28;20460;-77
2023/03/12 03:05:45;;;;;;;4.57;2.40;;;1.40;1.00;;;;;;5070604;28;20444;-77
2023/03/12 03:08:12;;;;;;;2.30;1.70;;;1.40;1.00;;;;;;5071703;28;20521;-77
2023/03/12 03:10:39;;;;;;;4.00;1.80;;;1.80;99.90;;;;;;5071207;28;20446;-78
2023/03/12 03:13:06;;;;;;;2.10;1.20;;;1.70;99.90;;;;;;5071169;28;20454;-78
2023/03/12 03:15:34;;;;;;;2.20;1.77;;;1.80;99.90;;;;;;5070562;28;20452;-82
2023/03/12 03:18:02;;;;;;;2.73;2.47;;;2.10;75.70;;;;;;5070966;28;20433;-85
2023/03/12 03:20:30;;;;;;;1.73;1.63;;;2.20;1.00;;;;;;5071739;28;20551;-83
2023/03/12 03:22:57;;;;;;;2.90;1.70;;;2.20;1.00;;;;;;5070751;28;20942;-84
2023/03/12 03:25:24;;;;;;;2.90;1.57;;;1.90;1.00;;;;;;5071177;28;20477;-84
2023/03/12 03:27:51;;;;;;;9.93;3.10;;;1.90;99.90;;;;;;5071080;28;20774;-83
2023/03/12 03:30:18;;;;;;;3.60;1.20;;;2.00;99.90;;;;;;5071266;28;20441;-83
2023/03/12 03:32:46;;;;;;;2.80;2.20;;;2.00;39.40;;;;;;5071816;28;20786;-83
2023/03/12 03:35:13;;;;;;;1.90;1.80;;;1.90;1.00;;;;;;5070954;28;20444;-84
2023/03/12 03:37:40;;;;;;;4.80;2.20;;;2.00;76.80;;;;;;5071299;28;20442;-85
2023/03/12 03:40:10;;;;;;;4.00;2.07;;;2.20;1.00;;;;;;5070556;28;20445;-83
2023/03/12 03:42:38;;;;;;;4.03;1.87;;;2.30;1.00;;;;;;5071526;28;20434;-84
2023/03/12 03:45:07;;;;;;;2.10;1.90;;;2.20;1.00;;;;;;5070113;28;20493;-82
2023/03/12 03:47:33;;;;;;;3.63;3.33;;;2.00;1.00;;;;;;5071083;28;20449;-83
2023/03/12 03:50:02;;;;;;;2.17;1.50;;;2.40;1.00;;;;;;5070447;28;20449;-84
2023/03/12 03:52:28;;;;;;;3.13;2.83;;;2.20;1.00;;;;;;5070921;28;20947;-84
2023/03/12 03:54:55;;;;;;;4.50;1.80;;;2.20;1.00;;;;;;5070199;28;20482;-83
2023/03/12 03:57:23;;;;;;;3.03;2.17;;;2.10;1.00;;;;;;5070670;28;20487;-83
2023/03/12 03:59:50;;;;;;;2.50;1.93;;;2.00;1.00;;;;;;5070633;28;20522;-83
2023/03/12 04:02:17;;;;;;;3.63;2.40;;;2.10;1.00;;;;;;5070783;28;20766;-83
2023/03/12 04:04:44;;;;;;;2.90;2.10;;;2.10;1.00;;;;;;5070683;28;20477;-83
2023/03/12 04:07:12;;;;;;;1.73;1.60;;;2.10;1.00;;;;;;5070041;28;20433;-82
2023/03/12 04:09:39;;;;;;;2.77;1.80;;;2.10;1.00;;;;;;5071064;28;20451;-83
2023/03/12 04:12:06;;;;;;;1.87;1.57;;;2.30;1.00;;;;;;5070286;28;20449;-83
2023/03/12 04:14:33;;;;;;;6.30;2.97;;;2.30;1.00;;;;;;5070325;28;20810;-84
2023/03/12 04:17:00;;;;;;;1.43;1.33;;;2.30;1.00;;;;;;5070169;28;20438;-79
2023/03/12 04:19:27;;;;;;;1.80;1.43;;;2.30;1.00;;;;;;5070288;28;20445;-79
2023/03/12 04:21:53;;;;;;;7.20;2.60;;;2.30;1.00;;;;;;5066412;28;20451;-78
2023/03/12 04:24:22;;;;;;;4.37;2.43;;;;;;;;;;5069940;28;20477;-78
2023/03/12 04:26:50;;;;;;;2.07;1.77;;;;;;;;;;5069195;28;20440;-75
2023/03/12 04:29:17;;;;;;;2.03;1.33;;;;;;;;;;5070756;28;21021;-78
2023/03/12 04:31:44;;;;;;;1.73;1.63;;;;;;;;;;5070457;28;20433;-79
2023/03/12 04:34:12;;;;;;;2.80;2.20;;;;;;;;;;5069643;28;20441;-78
2023/03/12 04:36:39;;;;;;;5.60;1.50;;;;;;;;;;5070495;28;20489;-79
2023/03/12 04:39:07;;;;;;;3.77;2.33;;;;;;;;;;5076241;28;20441;-78
2023/03/12 04:41:35;;;;;;;1.70;1.57;;;;;;;;;;5076281;28;20449;-79
2023/03/12 04:44:02;;;;;;;3.63;2.00;;;;;;;;;;5077541;28;20433;-78
2023/03/12 04:46:30;;;;;;;2.80;1.73;;;;;;;;;;5079870;28;20480;-78
2023/03/12 04:49:01;;;;;;;4.60;1.90;;;;;;;;;;5078328;28;20449;-78
2023/03/12 04:51:28;;;;;;;3.07;2.00;;;;;;;;;;5080188;28;20507;-78
2023/03/12 04:53:55;;;;;;;4.60;1.90;;;;;;;;;;5080925;28;20433;-78
2023/03/12 04:56:22;;;;;;;3.53;2.43;;;;;;;;;;5082965;28;20448;-78
2023/03/12 04:58:51;;;;;;;3.70;1.97;;;;;;;;;;5084042;28;20437;-77
2023/03/12 05:01:22;;;;;;;5.03;2.53;;;;;;;;;;5083949;28;20425;-76
2023/03/12 05:03:49;;;;;;;3.33;2.03;;;;;;;;;;5084376;28;20442;-72
2023/03/12 05:06:16;;;;;;;1.33;1.20;;;;;;;;;;5086302;28;20483;-78
2023/03/12 05:08:44;;;;;;;1.93;1.60;;;;;;;;;;5086162;28;20449;-78
2023/03/12 05:11:11;;;;;;;1.97;1.80;;;;;;;;;;5085842;28;20472;-79
2023/03/12 05:13:38;;;;;;;3.57;2.33;;;;;;;;;;5087078;28;20430;-78
2023/03/12 05:16:07;;;;;;;3.23;1.30;;;;;;;;;;5087802;28;20452;-78
2023/03/12 05:18:34;;;;;;;2.73;2.13;;;;;;;;;;5086485;28;20438;-79
2023/03/12 05:21:02;;;;;;;2.70;1.97;;;;;;;;;;5086372;28;20459;-78
2023/03/12 05:23:29;;;;;;;4.73;1.80;;;;;;;;;;5089526;28;20529;-73
2023/03/12 05:25:56;;;;;;;2.73;2.43;;;;;;;;;;5089144;28;20547;-78
2023/03/12 05:28:26;;;;;;;2.60;1.93;;;;;;;;;;5089471;28;20430;-78
2023/03/12 05:30:53;;;;;;;1.73;1.30;;;;;;;;;;5089655;28;20438;-77
2023/03/12 05:33:22;;;;;;;3.63;1.70;;;;;;;;;;5087726;28;20433;-78
2023/03/12 05:35:49;;;;;;;2.43;1.57;;;;;;;;;;5080710;28;20444;-74
2023/03/12 05:38:16;;;;;;;2.30;2.07;;;;;;;;;;5080436;28;20451;-78
2023/03/12 05:40:43;;;;;;;2.47;2.03;;;;;;;;;;5081048;28;20441;-78
2023/03/12 05:43:10;;;;;;;3.90;1.97;;;;;;;;;;5078780;28;20528;-78
2023/03/12 05:45:37;;;;;;;2.23;1.73;;;;;;;;;;5075953;28;20504;-78
2023/03/12 05:48:04;;;;;;;3.40;2.23;;;;;;;;;;5076975;28;20805;-78
2023/03/12 05:50:33;;;;;;;2.20;1.77;;;;;;;;;;5074953;28;20433;-79
2023/03/12 05:53:00;;;;;;;5.93;1.83;;;;;;;;;;5072787;28;20442;-78
2023/03/12 05:55:27;;;;;;;3.23;2.37;;;;;;;;;;5072516;28;20450;-78
2023/03/12 05:57:54;;;;;;;7.00;2.10;;;;;;;;;;5072811;28;20540;-79
2023/03/12 06:00:22;;;;;;;3.77;1.80;;;;;;;;;;5073319;28;20438;-79
2023/03/12 06:02:49;;;;;;;3.77;2.40;;;;;;;;;;5072687;28;21025;-73
2023/03/12 06:05:16;;;;;;;2.30;2.10;;;;;;;;;;5072849;28;20469;-77
2023/03/12 06:07:44;;;;;;;1.80;1.70;;;;;;;;;;5073384;28;20448;-78
2023/03/12 06:10:13;;;;;;;2.27;2.10;;;;;;;;;;5072890;28;20441;-79
2023/03/12 06:12:40;;;;;;;3.30;2.00;;;;;;;;;;5072977;28;20445;-78
2023/03/12 06:15:07;;;;;;;2.00;1.80;;;;;;;;;;5071397;28;20951;-79
2023/03/12 06:17:34;;;;;;;2.97;2.10;;;;;;;;;;5072950;28;20530;-81
2023/03/12 06:20:02;;;;;;;2.00;1.80;;;;;;;;;;5072014;28;20457;-80
2023/03/12 06:22:29;;;;;;;15.87;2.23;;;;;;;;;;5072768;28;20536;-79
2023/03/12 06:24:57;;;;;;;2.17;1.27;;;;;;;;;;5071511;28;20473;-79
2023/03/12 06:27:24;;;;;;;5.27;1.73;;;;;;;;;;5072689;28;20426;-79
2023/03/12 06:29:52;;;;;;;1.87;1.77;;;;;;;;;;5073127;28;20448;-79
2023/03/12 06:32:19;;;;;;;4.03;2.53;;;;;;;;;;5080665;28;20503;-75
2023/03/12 06:34:46;;;;;;;7.70;2.07;;;;;;;;;;5072097;28;20434;-78
2023/03/12 06:37:13;;;;;;;1.20;0.87;;;;;;;;;;5071819;28;20442;-78
2023/03/12 06:39:40;;;;;;;2.70;2.27;;;;;;;;;;5072503;28;20441;-78
2023/03/12 06:42:11;;;;;;;2.50;1.60;;;;;;;;;;5071820;28;20437;-78
2023/03/12 06:44:38;;;;;;;5.43;2.00;;;;;;;;;;5072157;28;20454;-79
2023/03/12 06:47:06;;;;;;;7.07;2.47;;;;;;;;;;5072157;28;20451;-76
2023/03/12 06:49:34;;;;;;;3.20;2.50;;;;;;;;;;5072952;28;20456;-80
2023/03/12 06:52:01;;;;;;;4.20;2.50;;;;;;;;;;5071564;28;20454;-80
2023/03/12 06:54:28;;;;;;;3.20;1.80;;;;;;;;;;5072179;28;20464;-80
2023/03/12 06:56:55;;;;;;;6.43;2.67;;;;;;;;;;5071637;28;20437;-80
2023/03/12 06:59:24;;;;;;;5.57;2.70;;;;;;;;;;5072326;28;20448;-78
2023/03/12 07:01:51;;;;;;;1.97;1.73;;;;;;;;;;5071546;28;20439;-78
2023/03/12 07:04:18;;;;;;;3.53;1.90;;;;;;;;;;5071749;28;20473;-76
2023/03/12 07:06:49;;;;;;;2.47;2.27;;;;;;;;;;5071049;28;20823;-77
2023/03/12 07:09:16;;;;;;;2.80;1.83;;;;;;;;;;5072020;28;20480;-76
2023/03/12 07:11:44;;;;;;;1.80;1.70;;;;;;;;;;5072181;28;20499;-78
2023/03/12 07:14:11;;;;;;;2.23;1.80;;;;;;;;;;5071061;28;20554;-77
2023/03/12 07:16:39;;;;;;;3.97;2.53;;;;;;;;;;5071824;28;21247;-77
2023/03/12 07:19:06;;;;;;;2.60;1.97;;;;;;;;;;5071447;28;20446;-78
2023/03/12 07:21:34;;;;;;;2.90;2.53;;;;;;;;;;5072021;28;20789;-78
2023/03/12 07:24:05;;;;;;;3.17;2.27;;;;;;;;;;5070890;28;20442;-77
2023/03/12 07:26:32;;;;;;;2.23;1.80;;;;;;;;;;5071614;28;20504;-77
2023/03/12 07:29:00;;;;;;;7.80;2.30;;;;;;;;;;5071260;28;20442;-78
2023/03/12 07:31:27;;;;;;;4.17;3.50;;;;;;;;;;5071227;28;20449;-78
2023/03/12 07:33:55;;;;;;;3.43;2.00;;;;;;;;;;5070875;28;20769;-78
2023/03/12 07:36:23;;;;;;;3.87;3.10;;;;;;;;;;5070790;28;20507;-77
2023/03/12 07:38:50;;;;;;;3.10;2.80;;;;;;;;;;5070744;28;20956;-78
2023/03/12 07:41:18;;;;;;;2.43;2.07;;;;;;;;;;5070631;28;20537;-77
2023/03/12 07:43:45;;;;;;;2.23;2.03;;;;;;;;;;5071436;28;20448;-77
2023/03/12 07:46:12;;;;;;;2.67;2.07;;;;;;;;;;5070642;28;20499;-78
2023/03/12 07:48:39;;;;;;;5.50;2.87;;;;;;;;;;5071060;28;20442;-77
2023/03/12 07:51:08;;;;;;;3.40;2.67;;;;;;;;;;5070689;28;20442;-78
2023/03/12 07:53:35;;;;;;;4.00;3.50;;;;;;;;;;5070632;28;20941;-78
2023/03/12 07:56:02;;;;;;;3.93;2.60;;;;;;;;;;5070790;28;20442;-77
2023/03/12 07:58:29;;;;;;;4.67;3.37;;;;;;;;;;5071019;28;20442;-78
2023/03/12 08:00:57;;;;;;;8.47;2.97;;;;;;;;;;5070857;28;20505;-78
2023/03/12 08:03:24;;;;;;;3.97;3.67;;;;;;;;;;5070864;28;20788;-79
2023/03/12 08:05:58;;;;;;;7.17;3.03;;;;;;;;;;5070673;28;20482;-79
2023/03/12 08:08:27;;;;;;;3.00;2.70;;;;;;;;;;5071228;28;20801;-80
2023/03/12 08:10:55;;;;;;;3.10;2.27;;;;;;;;;;5070377;28;20918;-79
2023/03/12 08:13:23;;;;;;;5.10;3.40;;;;;;;;;;5070421;28;20449;-79
2023/03/12 08:15:50;;;;;;;2.80;2.60;;;;;;;;;;5070446;28;20448;-79
2023/03/12 08:18:17;;;;;;;3.87;2.73;;;;;;;;;;5074729;28;20500;-79
2023/03/12 08:20:44;;;;;;;3.53;3.03;;;;;;;;;;5075199;28;20437;-80
2023/03/12 08:23:12;;;;;;;3.80;2.77;;;;;;;;;;5074008;28;20445;-76
2023/03/12 08:25:40;;;;;;;4.20;2.53;;;;;;;;;;5075171;28;20490;-80
2023/03/12 08:28:07;;;;;;;2.80;2.60;;;;;;;;;;5074415;28;20785;-79
2023/03/12 08:30:34;;;;;;;5.20;3.10;;;;;;;;;;5075134;28;20441;-80
2023/03/12 08:33:01;;;;;;;3.47;2.80;;;;;;;;;;5074506;28;20444;-79
2023/03/12 08:35:29;;;;;;;5.07;3.10;;;;;;;;;;5074397;28;20524;-80
2023/03/12 08:37:56;;;;;;;4.50;3.50;;;;;;;;;;5073860;28;20439;-80
2023/03/12 08:40:23;;;;;;;8.80;3.00;;;;;;;;;;5075029;28;20547;-80
2023/03/12 08:42:52;;;;;;;7.57;2.73;;;;;;;;;;5074007;28;20444;-79
2023/03/12 08:45:19;;;;;;;3.50;2.90;;;;;;;;;;5074001;28;20983;-77
2023/03/12 08:47:47;;;;;;;5.83;3.67;;;;;;;;;;5074830;28;20441;-79
2023/03/12 08:50:15;;;;;;;2.70;2.17;;;;;;;;;;5075010;28;20490;-79
2023/03/12 08:52:42;;;;;;;5.20;3.60;;;;;;;;;;5074711;28;20443;-79
2023/03/12 08:55:10;;;;;;;3.20;2.30;;;;;;;;;;5073663;28;20446;-79
2023/03/12 08:57:38;;;;;;;3.83;2.90;;;;;;;;;;5074478;28;20445;-80
2023/03/12 09:00:11;;;;;;;3.63;3.33;;;;;;;;;;5073613;28;20441;-78
2023/03/12 09:02:38;;;;;;;4.60;1.97;;;;;;;;;;5074476;28;20441;-78
2023/03/12 09:05:05;;;;;;;2.93;2.10;;;;;;;;;;5073558;28;20441;-79
2023/03/12 09:07:32;;;;;;;2.53;2.33;;;;;;;;;;5073989;28;20480;-79
2023/03/12 09:10:00;;;;;;;2.63;2.17;;;;;;;;;;5073712;28;20909;-78
2023/03/12 09:12:27;;;;;;;3.10;1.80;;;;;;;;;;5074162;28;20452;-78
2023/03/12 09:14:54;;;;;;;6.13;2.93;;;;;;;;;;5073627;28;20451;-79
2023/03/12 09:17:22;;;;;;;4.90;2.20;;;;;;;;;;5074360;28;20795;-79
2023/03/12 09:19:49;;;;;;;4.33;2.07;;;;;;;;;;5073380;28;20437;-78
2023/03/12 09:22:17;;;;;;;2.77;2.20;;;;;;;;;;5073986;28;20528;-79
2023/03/12 09:24:44;;;;;;;5.17;3.70;;;;;;;;;;5073514;28;20452;-79
2023/03/12 09:27:11;;;;;;;5.47;3.27;;;;;;;;;;5073458;28;20505;-79
2023/03/12 09:29:38;;;;;;;4.83;3.70;;;;;;;;;;5072934;28;20453;-80
2023/03/12 09:32:05;;;;;;;6.30;3.90;;;;;;;;;;5073346;28;20457;-80
2023/03/12 09:34:34;;;;;;;3.00;2.70;;;;;;;;;;5073674;28;20444;-80
2023/03/12 09:37:01;;;;;;;4.93;3.90;;;;;;;;;;5072943;28;20445;-79
2023/03/12 09:39:28;;;;;;;3.97;2.37;;;;;;;;;;5073413;28;20476;-80
2023/03/12 09:41:56;;;;;;;4.50;2.40;;;;;;;;;;5072600;28;20456;-80
2023/03/12 09:44:27;;;;;;;4.70;1.87;;;;;;;;;;5072640;28;20455;-80
2023/03/12 09:46:56;;;;;;;2.97;2.50;;;;;;;;;;5072988;28;20831;-80
2023/03/12 09:49:27;;;;;;;3.50;2.67;;;;;;;;;;5072750;28;20445;-80
2023/03/12 09:51:57;;;;;;;3.30;2.23;;;;;;;;;;5069152;28;20442;-79
2023/03/12 09:54:28;;;;;;;5.17;2.63;;;;;;;;;;5073514;28;20451;-80
2023/03/12 09:56:56;;;;;;;3.93;2.80;;;;;;;;;;5071892;28;20460;-79
2023/03/12 09:59:24;;;;;;;4.33;2.33;;;;;;;;;;5073505;28;20460;-79
2023/03/12 10:01:53;;;;;;;4.17;2.20;;;;;;;;;;5059146;28;20438;-80
2023/03/12 10:04:24;;;;;;;6.30;3.07;;;;;;;;;;5073020;28;20441;-81
2023/03/12 10:06:53;;;;;;;4.80;3.03;;;;;;;;;;5076848;28;20567;-81
2023/03/12 10:09:28;;;;;;;3.80;2.90;;;;;;;;;;5073297;28;20920;-80
2023/03/12 10:11:59;;;;;;;3.67;2.60;;;;;;;;;;5072660;28;20448;-79
2023/03/12 10:14:34;;;;;;;2.83;1.60;;;;;;;;;;5072983;28;20464;-79
2023/03/12 10:17:07;;;;;;;3.50;1.50;;;;;;;;;;5072408;28;20447;-80
2023/03/12 10:19:41;;;;;;;2.70;1.50;;;;;;;;;;5073279;28;20434;-79
2023/03/12 10:22:13;;;;;;;1.83;1.33;;;;;;;;;;5072672;28;20975;-78
2023/03/12 10:24:49;;;;;;;2.30;1.40;;;;;;;;;;5072553;28;20494;-79
2023/03/12 10:27:17;;;;;;;1.87;1.17;;;;;;;;;;5072982;28;20465;-78
2023/03/12 10:29:47;;;;;;;0.97;0.80;;;;;;;;;;5072792;28;20438;-79
2023/03/12 10:32:16;;;;;;;1.30;1.10;;;;;;;;;;5072766;28;20442;-78
2023/03/12 10:34:44;;;;;;;2.10;0.97;;;;;;;;;;5072077;28;20445;-79
2023/03/12 10:37:14;;;;;;;1.33;0.97;;;;;;;;;;5071420;28;20800;-76
2023/03/12 10:39:41;;;;;;;1.47;1.37;;;;;;;;;;5071912;28;20464;-79
2023/03/12 10:42:14;;;;;;;1.30;1.10;;;;;;;;;;5071466;28;21215;-74
2023/03/12 10:44:42;;;;;;;2.80;1.20;;;;;;;;;;5072489;28;20449;-88
2023/03/12 10:47:26;;;;;;;2.80;1.90;;;;;;;;;;5072306;28;20469;-75
2023/03/12 10:49:53;;;;;;;2.47;1.70;;;;;;;;;;5071552;28;20491;-77
2023/03/12 10:52:21;;;;;;;1.27;1.00;;;;;;;;;;5068408;28;20453;-76
2023/03/12 10:54:49;;;;;;;1.30;1.07;;;;;;;;;;5072221;28;20442;-78
2023/03/12 10:57:19;;;;;;;1.27;1.17;;;;;;;;;;5072334;28;20448;-80
2023/03/12 10:59:47;;;;;;;1.80;0.90;;;;;;;;;;5072442;28;20449;-74
2023/03/12 11:02:29;;;;;;;4.00;2.30;;;;;;;;;;5072402;28;20445;-76
2023/03/12 11:04:56;;;;;;;1.50;1.40;;;;;;;;;;5071221;28;20446;-76
2023/03/12 11:07:25;;;;;;;5.20;1.47;;;;;;;;;;5072015;28;20488;-77
2023/03/12 11:10:13;;;;;;;2.20;1.00;;;;;;;;;;5071411;28;20437;-76
2023/03/12 11:12:51;;;;;;;1.50;1.40;;;;;;;;;;5064268;28;20901;-79
2023/03/12 11:15:19;;;;;;;1.47;1.37;;;;;;;;;;5072605;28;20460;-81
2023/03/12 11:17:47;;;;;;;1.30;1.20;;;;;;;;;;5072617;28;20970;-76
2023/03/12 11:20:27;;;;;;;1.40;1.00;;;;;;;;;;5059394;28;20438;-90
2023/03/12 11:22:54;;;;;;;1.10;0.80;;;;;;;;;;5066344;28;20465;-86
2023/03/12 11:25:22;;;;;;;1.63;1.30;;;;;;;;;;5072741;28;20445;-89
2023/03/12 11:27:53;;;;;;;1.40;1.10;;;;;;;;;;5071777;28;20473;-87
2023/03/12 11:30:23;;;;;;;3.13;0.90;;;;;;;;;;5070648;28;20429;-88
2023/03/12 11:32:50;;;;;;;2.30;1.10;;;;;;;;;;5071177;28;20449;-89
2023/03/12 11:35:20;;;;;;;2.80;1.73;;;;;;;;;;5071947;28;20472;-89
2023/03/12 11:37:52;;;;;;;1.20;0.60;;;;;;;;;;5071408;28;20454;-86
2023/03/12 11:40:26;;;;;;;2.50;0.70;;;;;;;;;;5071912;28;20453;-77
2023/03/12 11:43:01;;;;;;;1.00;0.67;;;;;;;;;;5075323;28;20433;-85
2023/03/12 11:45:33;;;;;;;1.23;0.63;;;;;;;;;;5073888;28;20469;-89
2023/03/12 11:48:03;;;;;;;0.80;0.57;;;;;;;;;;5072613;28;20881;-89
2023/03/12 11:50:37;;;;;;;0.70;0.50;;;;;;;;;;5070634;28;20454;-84
2023/03/12 11:53:09;;;;;;;2.07;0.90;;;;;;;;;;5067881;28;20441;-78
2023/03/12 11:55:44;;;;;;;5.60;0.80;;;;;;;;;;5069546;28;20450;-77
2023/03/12 11:58:21;;;;;;;0.93;0.80;;;;;;;;;;5069068;28;20440;-85
2023/03/12 12:00:51;;;;;;;1.23;0.67;;;;;;;;;;5058486;28;20446;-85
2023/03/12 12:03:31;;;;;;;1.73;0.50;;;;;;;;;;5064702;28;20452;-85
2023/03/12 12:06:01;;;;;;;0.87;0.57;;;;;;;;;;5070152;28;20444;-86
2023/03/12 12:08:37;;;;;;;5.03;1.13;;;;;;;;;;5069068;28;20964;-86
2023/03/12 12:11:08;;;;;;;1.73;0.60;;;;;;;;;;5062003;28;20437;-90
2023/03/12 12:13:42;;;;;;;1.03;0.87;;;;;;;;;;5069414;28;20779;-88
2023/03/12 12:16:18;;;;;;;1.07;0.60;;;;;;;;;;5070250;28;20468;-88
2023/03/12 12:18:51;;;;;;;4.83;0.80;;;;;;;;;;5070517;28;20448;-87
2023/03/12 12:21:33;;;;;;;1.27;0.53;;;;;;;;;;5070514;28;20790;-83
2023/03/12 12:24:05;;;;;;;6.80;3.20;;;;;;;;;;5068878;28;20467;-89
2023/03/12 12:26:38;;;;;;;0.80;0.60;;;;;;;;;;5068354;28;20438;-85
2023/03/12 12:29:16;;;;;;;2.47;0.90;;;;;;;;;;5068763;28;20929;-85
2023/03/12 12:31:46;;;;;;;1.00;0.77;;;;;;;;;;5069358;28;20433;-83
2023/03/12 12:34:28;;;;;;;1.00;0.60;;;;;;;;;;5065725;28;20525;-81
2023/03/12 12:37:00;;;;;;;4.30;0.80;;;;;;;;;;5058741;28;20450;-84
2023/03/12 12:39:30;;;;;;;0.80;0.80;;;;;;;;;;5069241;28;20433;-87
2023/03/12 12:41:58;;;;;;;1.33;0.80;;;;;;;;;;5068763;28;20456;-86
2023/03/12 12:44:28;;;;;;;0.97;0.70;;;;;;;;;;5069295;28;20464;-86
2023/03/12 12:47:00;;;;;;;2.37;0.97;;;;;;;;;;5068083;28;20496;-83
2023/03/12 12:49:31;;;;;;;1.80;0.87;;;;;;;;;;5069840;28;20442;-86
2023/03/12 12:52:01;;;;;;;1.70;0.70;;;;;;;;;;5069126;28;20524;-86
2023/03/12 12:54:32;;;;;;;2.00;0.70;;;;;;;;;;5069199;28;20925;-87
2023/03/12 12:57:02;;;;;;;2.47;1.10;;;;;;;;;;5068247;28;20503;-89
2023/03/12 12:59:36;;;;;;;3.37;1.10;;;;;;;;;;5069973;28;20438;-86
2023/03/12 13:02:04;;;;;;;1.80;1.17;;;;;;;;;;5069130;28;20461;-88
2023/03/12 13:04:35;;;;;;;2.03;0.80;;;;;;;;;;5073245;28;20454;-85
2023/03/12 13:07:04;;;;;;;1.67;1.10;;;;;;;;;;5072922;28;20814;-88
2023/03/12 13:09:39;;;;;;;1.10;0.80;;;;;;;;;;5071773;28;20450;-89
2023/03/12 13:12:24;;;;;;;1.57;1.30;;;;;;;;;;5069116;28;20449;-86
2023/03/12 13:14:53;;;;;;;2.77;1.00;;;;;;;;;;5072456;28;20449;-88
2023/03/12 13:17:28;;;;;;;0.80;0.70;;;;;;;;;;5073681;28;20454;-88
2023/03/12 13:19:59;;;;;;;4.80;1.23;;;;;;;;;;5073451;28;20455;-87
2023/03/12 13:22:42;;;;;;;0.90;0.70;;;;;;;;;;5074443;28;20450;-88
2023/03/12 13:25:16;;;;;;;4.87;1.33;;;;;;;;;;5070755;28;20445;-88
2023/03/12 13:27:45;;;;;;;0.90;0.80;;;;;;;;;;5070775;28;20469;-90
2023/03/12 13:30:45;;;;;;;1.13;0.80;;;;;;;;;;5074458;28;20452;-86
2023/03/12 13:33:14;;;;;;;1.90;0.50;;;;;;;;;;5060363;28;20441;-89
2023/03/12 13:35:41;;;;;;;1.70;0.87;;;;;;;;;;5072996;28;20951;-83
2023/03/12 13:38:12;;;;;;;3.23;0.70;;;;;;;;;;5072198;28;21233;-86
2023/03/12 13:41:03;;;;;;;4.20;1.03;;;;;;;;;;5072730;28;20520;-87
2023/03/12 13:43:41;;;;;;;1.10;0.70;;;;;;;;;;5073000;28;20449;-90
2023/03/12 13:46:22;;;;;;;0.80;0.60;;;;;;;;;;5072846;28;20473;-87
2023/03/12 13:48:49;;;;;;;3.07;0.80;;;;;;;;;;5067836;28;20476;-73
2023/03/12 13:51:17;;;;;;;1.87;1.03;;;;;;;;;;5073000;28;20774;-89
2023/03/12 13:53:48;;;;;;;2.77;1.07;;;;;;;;;;5073181;28;20442;-89
2023/03/12 13:56:18;;;;;;;1.60;0.93;;;;;;;;;;5072839;28;20464;-85
2023/03/12 13:58:49;;;;;;;1.90;1.00;;;;;;;;;;5071419;28;20454;-87
2023/03/12 14:01:19;;;;;;;0.90;0.70;;;;;;;;;;5072850;28;20460;-87
2023/03/12 14:03:50;;;;;;;1.30;0.80;;;;;;;;;;5072036;28;20441;-86
2023/03/12 14:06:19;;;;;;;1.10;1.00;;;;;;;;;;5072848;28;20426;-82
2023/03/12 14:08:58;;;;;;;1.17;0.80;;;;;;;;;;5070670;28;20742;-85
2023/03/12 14:11:36;;;;;;;4.57;1.00;;;;;;;;;;5071955;28;20448;-88
2023/03/12 14:14:24;;;;;;;2.40;0.77;;;;;;;;;;5071349;28;20455;-89
2023/03/12 14:16:53;;;;;;;3.00;0.97;;;;;;;;;;5045355;28;20441;-89
2023/03/12 14:19:23;;;;;;;1.03;0.67;;;;;;;;;;5072590;28;20449;-87
2023/03/12 14:21:51;;;;;;;3.90;1.17;;;;;;;;;;5072071;28;20863;-87
2023/03/12 14:24:23;;;;;;;1.60;0.93;;;;;;;;;;5072522;28;20445;-82
2023/03/12 14:26:51;;;;;;;1.10;0.63;;;;;;;;;;5066628;28;20430;-76
2023/03/12 14:29:21;;;;;;;1.07;0.97;;;;;;;;;;5067748;28;20516;-75
2023/03/12 14:31:48;;;;;;;5.97;1.40;;;;;;;;;;5070789;28;20453;-75
2023/03/12 14:34:19;;;;;;;3.60;1.30;;;;;;;;;;5069855;28;20456;-74
2023/03/12 14:36:49;;;;;;;4.90;1.57;;;;;;;;;;5070492;28;20434;-82
2023/03/12 14:39:24;;;;;;;5.47;2.03;;;;;;;;;;5070622;28;20457;-86